GXA6108 SYCJ-TJSJ
Flight info
| Callsign | GXA6108 |
|---|---|
| Flight time | 2h 21m |
| Altitude | 38000 |
| Route | TIM DCT KORTO UL329 SORRL UL454 ILURI TROCO3 |
| Aircraft | A320/M-SDE3FGHIRWY/LB1 |
Departure
| Time | 2026-04-29 17:54 |
|---|---|
| Airport | Cheddi Jagan International Airport (SYCJ) |
Arrival
| Time | 2026-04-29 20:15 |
|---|---|
| Airport | Luis Munoz Marin International Airport (TJSJ) |
| Time | Latitude | Longitude | Altitude | Speed | Heading |
|---|---|---|---|---|---|
| 2026-04-29 17:31 | 6.50351 | -58.25228 | 96 ft | 0 kts | 315° |
| 2026-04-29 17:46 | 6.50348 | -58.25225 | 96 ft | 2 kts | 315° |
| 2026-04-29 17:46 | 6.50336 | -58.25213 | 98 ft | 2 kts | 315° |
| 2026-04-29 17:46 | 6.50324 | -58.25201 | 96 ft | 2 kts | 300° |
| 2026-04-29 17:47 | 6.50319 | -58.25185 | 97 ft | 2 kts | 237° |
| 2026-04-29 17:47 | 6.50322 | -58.25181 | 97 ft | 0 kts | 224° |
| 2026-04-29 17:49 | 6.50318 | -58.25185 | 97 ft | 4 kts | 224° |
| 2026-04-29 17:50 | 6.50274 | -58.25228 | 96 ft | 10 kts | 226° |
| 2026-04-29 17:50 | 6.50222 | -58.25263 | 97 ft | 8 kts | 180° |
| 2026-04-29 17:50 | 6.50179 | -58.25235 | 97 ft | 8 kts | 136° |
| 2026-04-29 17:50 | 6.50133 | -58.25190 | 97 ft | 10 kts | 138° |
| 2026-04-29 17:51 | 6.50073 | -58.25197 | 98 ft | 8 kts | 220° |
| 2026-04-29 17:51 | 6.50019 | -58.25249 | 99 ft | 14 kts | 224° |
| 2026-04-29 17:51 | 6.49929 | -58.25338 | 101 ft | 22 kts | 224° |
| 2026-04-29 17:51 | 6.49806 | -58.25460 | 104 ft | 26 kts | 224° |
| 2026-04-29 17:52 | 6.49667 | -58.25598 | 104 ft | 30 kts | 227° |
| 2026-04-29 17:52 | 6.49569 | -58.25699 | 106 ft | 30 kts | 224° |
| 2026-04-29 17:52 | 6.49380 | -58.25884 | 107 ft | 27 kts | 224° |
| 2026-04-29 17:52 | 6.49273 | -58.26004 | 109 ft | 15 kts | 234° |
| 2026-04-29 17:53 | 6.49228 | -58.26067 | 109 ft | 9 kts | 239° |
| 2026-04-29 17:53 | 6.49214 | -58.26049 | 110 ft | 7 kts | 44° |
| 2026-04-29 17:53 | 6.49221 | -58.26043 | 109 ft | 0 kts | 45° |
| 2026-04-29 17:53 | 6.49378 | -58.25886 | 107 ft | 79 kts | 45° |
| 2026-04-29 17:54 | 6.49974 | -58.25293 | 104 ft | 158 kts | 44° |
| 2026-04-29 17:54 | 6.50804 | -58.24481 | 810 ft | 167 kts | 42° |
| 2026-04-29 17:54 | 6.51628 | -58.23666 | 1661 ft | 165 kts | 46° |
| 2026-04-29 17:54 | 6.52648 | -58.23078 | 2153 ft | 185 kts | 11° |
| 2026-04-29 17:55 | 6.53979 | -58.23317 | 2455 ft | 217 kts | 337° |
| 2026-04-29 17:55 | 6.55398 | -58.24049 | 2840 ft | 242 kts | 336° |
| 2026-04-29 17:55 | 6.56963 | -58.24865 | 3356 ft | 264 kts | 336° |
| 2026-04-29 17:55 | 6.58622 | -58.25725 | 4167 ft | 271 kts | 335° |
| 2026-04-29 17:56 | 6.60320 | -58.26602 | 5046 ft | 277 kts | 336° |
| 2026-04-29 17:56 | 6.62047 | -58.27487 | 5914 ft | 281 kts | 335° |
| 2026-04-29 17:56 | 6.63801 | -58.28383 | 6743 ft | 285 kts | 335° |
| 2026-04-29 17:56 | 6.65586 | -58.29292 | 7555 ft | 290 kts | 335° |
| 2026-04-29 17:57 | 6.67405 | -58.30216 | 8387 ft | 296 kts | 335° |
| 2026-04-29 17:57 | 6.69257 | -58.31157 | 9230 ft | 301 kts | 335° |
| 2026-04-29 17:57 | 6.71143 | -58.32114 | 9987 ft | 306 kts | 334° |
| 2026-04-29 17:57 | 6.72454 | -58.32779 | 10270 ft | 320 kts | 334° |
| 2026-04-29 17:58 | 6.75198 | -58.34167 | 10744 ft | 343 kts | 334° |
| 2026-04-29 17:58 | 6.77357 | -58.35260 | 11337 ft | 351 kts | 335° |
| 2026-04-29 17:58 | 6.79556 | -58.36375 | 12005 ft | 356 kts | 335° |
| 2026-04-29 17:58 | 6.81773 | -58.37500 | 12735 ft | 358 kts | 335° |
| 2026-04-29 17:59 | 6.84009 | -58.38635 | 13436 ft | 361 kts | 334° |
| 2026-04-29 17:59 | 6.86264 | -58.39780 | 14069 ft | 365 kts | 335° |
| 2026-04-29 17:59 | 6.88543 | -58.40936 | 14632 ft | 369 kts | 335° |
| 2026-04-29 17:59 | 6.90852 | -58.42107 | 15173 ft | 374 kts | 334° |
| 2026-04-29 18:00 | 6.93185 | -58.43292 | 15754 ft | 377 kts | 334° |
| 2026-04-29 18:00 | 6.95540 | -58.44488 | 16303 ft | 381 kts | 335° |
| 2026-04-29 18:00 | 6.97927 | -58.45699 | 16861 ft | 385 kts | 335° |
| 2026-04-29 18:00 | 7.00332 | -58.46916 | 17402 ft | 389 kts | 335° |
| 2026-04-29 18:01 | 7.02731 | -58.48133 | 17931 ft | 393 kts | 335° |
| 2026-04-29 18:01 | 7.05186 | -58.49381 | 18439 ft | 397 kts | 335° |
| 2026-04-29 18:01 | 7.07668 | -58.50642 | 18899 ft | 401 kts | 335° |
| 2026-04-29 18:01 | 7.10169 | -58.51912 | 19363 ft | 405 kts | 335° |
| 2026-04-29 18:02 | 7.12691 | -58.53194 | 19837 ft | 408 kts | 335° |
| 2026-04-29 18:02 | 7.15237 | -58.54490 | 20298 ft | 412 kts | 335° |
| 2026-04-29 18:02 | 7.17806 | -58.55798 | 20758 ft | 416 kts | 335° |
| 2026-04-29 18:02 | 7.20403 | -58.57117 | 21216 ft | 420 kts | 335° |
| 2026-04-29 18:03 | 7.23024 | -58.58446 | 21667 ft | 424 kts | 335° |
| 2026-04-29 18:03 | 7.25667 | -58.59786 | 22121 ft | 427 kts | 335° |
| 2026-04-29 18:03 | 7.28337 | -58.61142 | 22564 ft | 431 kts | 335° |
| 2026-04-29 18:03 | 7.31027 | -58.62511 | 23037 ft | 435 kts | 335° |
| 2026-04-29 18:04 | 7.33739 | -58.63895 | 23477 ft | 439 kts | 335° |
| 2026-04-29 18:04 | 7.36477 | -58.65291 | 23854 ft | 442 kts | 335° |
| 2026-04-29 18:04 | 7.39227 | -58.66692 | 24264 ft | 443 kts | 335° |
| 2026-04-29 18:04 | 7.41983 | -58.68092 | 24686 ft | 444 kts | 335° |
| 2026-04-29 18:05 | 7.44746 | -58.69494 | 25107 ft | 445 kts | 335° |
| 2026-04-29 18:05 | 7.47513 | -58.70899 | 25520 ft | 446 kts | 335° |
| 2026-04-29 18:05 | 7.50247 | -58.72290 | 25925 ft | 446 kts | 334° |
| 2026-04-29 18:05 | 7.53021 | -58.73703 | 26327 ft | 447 kts | 334° |
| 2026-04-29 18:06 | 7.55795 | -58.75117 | 26698 ft | 448 kts | 334° |
| 2026-04-29 18:06 | 7.58582 | -58.76537 | 27072 ft | 449 kts | 334° |
| 2026-04-29 18:06 | 7.61376 | -58.77959 | 27430 ft | 450 kts | 334° |
| 2026-04-29 18:06 | 7.64174 | -58.79383 | 27765 ft | 452 kts | 334° |
| 2026-04-29 18:07 | 7.66984 | -58.80815 | 28121 ft | 452 kts | 334° |
| 2026-04-29 18:07 | 7.69794 | -58.82246 | 28500 ft | 453 kts | 335° |
| 2026-04-29 18:07 | 7.72609 | -58.83680 | 28840 ft | 454 kts | 334° |
| 2026-04-29 18:07 | 7.75430 | -58.85117 | 29186 ft | 454 kts | 334° |
| 2026-04-29 18:08 | 7.78252 | -58.86556 | 29543 ft | 455 kts | 334° |
| 2026-04-29 18:08 | 7.81075 | -58.87996 | 29880 ft | 455 kts | 334° |
| 2026-04-29 18:08 | 7.83905 | -58.89440 | 30176 ft | 455 kts | 334° |
| 2026-04-29 18:08 | 7.86728 | -58.90883 | 30466 ft | 456 kts | 334° |
| 2026-04-29 18:09 | 7.89560 | -58.92328 | 30719 ft | 456 kts | 334° |
| 2026-04-29 18:09 | 7.92361 | -58.93754 | 30980 ft | 457 kts | 334° |
| 2026-04-29 18:09 | 7.95232 | -58.95217 | 31254 ft | 456 kts | 334° |
| 2026-04-29 18:09 | 7.98031 | -58.96643 | 31506 ft | 457 kts | 333° |
| 2026-04-29 18:10 | 8.00868 | -58.98089 | 31787 ft | 457 kts | 333° |
| 2026-04-29 18:10 | 8.03694 | -58.99531 | 32138 ft | 454 kts | 333° |
| 2026-04-29 18:10 | 8.06507 | -59.00968 | 32507 ft | 452 kts | 333° |
| 2026-04-29 18:10 | 8.09309 | -59.02401 | 32834 ft | 451 kts | 333° |
| 2026-04-29 18:11 | 8.12105 | -59.03831 | 33159 ft | 450 kts | 333° |
| 2026-04-29 18:11 | 8.14892 | -59.05254 | 33519 ft | 448 kts | 333° |
| 2026-04-29 18:11 | 8.17667 | -59.06670 | 33883 ft | 446 kts | 333° |
| 2026-04-29 18:11 | 8.20441 | -59.08086 | 34202 ft | 445 kts | 333° |
| 2026-04-29 18:12 | 8.23190 | -59.09491 | 34511 ft | 443 kts | 333° |
| 2026-04-29 18:12 | 8.25936 | -59.10895 | 34808 ft | 442 kts | 333° |
| 2026-04-29 18:12 | 8.28676 | -59.12294 | 35102 ft | 440 kts | 333° |
| 2026-04-29 18:12 | 8.31407 | -59.13687 | 35399 ft | 438 kts | 333° |
| 2026-04-29 18:13 | 8.34121 | -59.15074 | 35689 ft | 437 kts | 332° |
| 2026-04-29 18:13 | 8.36825 | -59.16459 | 35972 ft | 435 kts | 332° |
| 2026-04-29 18:13 | 8.39521 | -59.17837 | 36248 ft | 434 kts | 332° |
| 2026-04-29 18:13 | 8.42211 | -59.19211 | 36521 ft | 432 kts | 332° |
| 2026-04-29 18:14 | 8.44889 | -59.20581 | 36797 ft | 431 kts | 332° |
| 2026-04-29 18:14 | 8.47557 | -59.21946 | 37039 ft | 429 kts | 332° |
| 2026-04-29 18:14 | 8.50214 | -59.23306 | 37348 ft | 427 kts | 332° |
| 2026-04-29 18:14 | 8.52851 | -59.24657 | 37623 ft | 425 kts | 332° |
| 2026-04-29 18:15 | 8.55450 | -59.25989 | 37843 ft | 424 kts | 332° |
| 2026-04-29 18:15 | 8.60727 | -59.28695 | 37912 ft | 421 kts | 332° |
| 2026-04-29 18:16 | 8.65916 | -59.31358 | 37910 ft | 421 kts | 332° |
| 2026-04-29 18:16 | 8.71144 | -59.34032 | 37911 ft | 422 kts | 332° |
| 2026-04-29 18:17 | 8.76386 | -59.36712 | 37914 ft | 422 kts | 332° |
| 2026-04-29 18:17 | 8.81628 | -59.39399 | 37922 ft | 422 kts | 331° |
| 2026-04-29 18:18 | 8.86869 | -59.42089 | 37930 ft | 422 kts | 331° |
| 2026-04-29 18:18 | 8.92115 | -59.44736 | 37931 ft | 422 kts | 336° |
| 2026-04-29 18:19 | 8.97611 | -59.46846 | 37932 ft | 422 kts | 337° |
| 2026-04-29 18:19 | 9.03112 | -59.48947 | 37928 ft | 422 kts | 337° |
| 2026-04-29 18:20 | 9.08602 | -59.51058 | 37932 ft | 422 kts | 337° |
| 2026-04-29 18:20 | 9.14095 | -59.53168 | 37932 ft | 422 kts | 337° |
| 2026-04-29 18:21 | 9.19581 | -59.55268 | 37934 ft | 421 kts | 337° |
| 2026-04-29 18:21 | 9.25065 | -59.57364 | 37932 ft | 421 kts | 337° |
| 2026-04-29 18:22 | 9.30545 | -59.59458 | 37934 ft | 421 kts | 337° |
| 2026-04-29 18:22 | 9.36014 | -59.61554 | 37929 ft | 421 kts | 336° |
| 2026-04-29 18:23 | 9.41493 | -59.63666 | 37925 ft | 421 kts | 337° |
| 2026-04-29 18:23 | 9.46968 | -59.65769 | 37924 ft | 421 kts | 337° |
| 2026-04-29 18:24 | 9.52445 | -59.67869 | 37925 ft | 421 kts | 337° |
| 2026-04-29 18:24 | 9.57925 | -59.69974 | 37927 ft | 421 kts | 337° |
| 2026-04-29 18:25 | 9.63401 | -59.72083 | 37931 ft | 421 kts | 337° |
| 2026-04-29 18:25 | 9.67952 | -59.73834 | 37927 ft | 421 kts | 337° |
| 2026-04-29 18:26 | 9.73430 | -59.75940 | 37927 ft | 421 kts | 337° |
| 2026-04-29 18:26 | 9.79796 | -59.78387 | 37932 ft | 421 kts | 336° |
| 2026-04-29 18:27 | 9.84384 | -59.80152 | 37935 ft | 421 kts | 336° |
| 2026-04-29 18:27 | 9.89861 | -59.82255 | 37935 ft | 421 kts | 336° |
| 2026-04-29 18:28 | 9.95332 | -59.84363 | 37932 ft | 420 kts | 336° |
| 2026-04-29 18:28 | 10.00778 | -59.86465 | 37936 ft | 420 kts | 336° |
| 2026-04-29 18:29 | 10.06244 | -59.88580 | 37932 ft | 420 kts | 336° |
| 2026-04-29 18:29 | 10.11712 | -59.90688 | 37936 ft | 420 kts | 336° |
| 2026-04-29 18:30 | 10.17187 | -59.92791 | 37936 ft | 420 kts | 336° |
| 2026-04-29 18:30 | 10.22655 | -59.94895 | 37945 ft | 420 kts | 336° |
| 2026-04-29 18:31 | 10.28125 | -59.97008 | 37931 ft | 420 kts | 336° |
| 2026-04-29 18:31 | 10.33592 | -59.99125 | 37930 ft | 421 kts | 336° |
| 2026-04-29 18:32 | 10.39064 | -60.01235 | 37943 ft | 421 kts | 336° |
| 2026-04-29 18:32 | 10.47272 | -60.04402 | 37934 ft | 421 kts | 336° |
| 2026-04-29 18:33 | 10.52740 | -60.06520 | 37935 ft | 421 kts | 336° |
| 2026-04-29 18:33 | 10.58211 | -60.08635 | 37939 ft | 421 kts | 336° |
| 2026-04-29 18:34 | 10.62764 | -60.10397 | 37935 ft | 421 kts | 336° |
| 2026-04-29 18:34 | 10.69164 | -60.12871 | 37933 ft | 421 kts | 336° |
| 2026-04-29 18:35 | 10.74600 | -60.14978 | 37935 ft | 421 kts | 336° |
| 2026-04-29 18:35 | 10.80071 | -60.17100 | 37940 ft | 421 kts | 336° |
| 2026-04-29 18:36 | 10.85541 | -60.19221 | 37944 ft | 421 kts | 336° |
| 2026-04-29 18:36 | 10.91004 | -60.21338 | 37938 ft | 421 kts | 336° |
| 2026-04-29 18:37 | 10.96491 | -60.23470 | 37938 ft | 421 kts | 336° |
| 2026-04-29 18:37 | 11.01964 | -60.25588 | 37942 ft | 421 kts | 336° |
| 2026-04-29 18:38 | 11.07440 | -60.27712 | 37944 ft | 421 kts | 336° |
| 2026-04-29 18:38 | 11.12914 | -60.29843 | 37945 ft | 421 kts | 336° |
| 2026-04-29 18:39 | 11.18386 | -60.31971 | 37968 ft | 421 kts | 336° |
| 2026-04-29 18:39 | 11.23869 | -60.34094 | 37964 ft | 422 kts | 336° |
| 2026-04-29 18:40 | 11.29316 | -60.36211 | 37957 ft | 422 kts | 336° |
| 2026-04-29 18:40 | 11.34799 | -60.38344 | 37954 ft | 421 kts | 336° |
| 2026-04-29 18:41 | 11.45749 | -60.42602 | 37961 ft | 421 kts | 336° |
| 2026-04-29 18:42 | 11.51225 | -60.44730 | 37961 ft | 421 kts | 336° |
| 2026-04-29 18:42 | 11.56693 | -60.46867 | 37961 ft | 421 kts | 336° |
| 2026-04-29 18:43 | 11.62165 | -60.49004 | 37954 ft | 421 kts | 336° |
| 2026-04-29 18:43 | 11.67640 | -60.51129 | 37951 ft | 421 kts | 336° |
| 2026-04-29 18:44 | 11.73121 | -60.53265 | 37948 ft | 421 kts | 336° |
| 2026-04-29 18:44 | 11.78598 | -60.55408 | 37950 ft | 422 kts | 336° |
| 2026-04-29 18:45 | 11.84082 | -60.57549 | 37948 ft | 422 kts | 336° |
| 2026-04-29 18:45 | 11.89567 | -60.59683 | 37964 ft | 422 kts | 336° |
| 2026-04-29 18:46 | 11.95045 | -60.61827 | 37949 ft | 421 kts | 336° |
| 2026-04-29 18:46 | 12.00525 | -60.63966 | 37950 ft | 421 kts | 336° |
| 2026-04-29 18:47 | 12.05963 | -60.66089 | 37948 ft | 421 kts | 336° |
| 2026-04-29 18:47 | 12.11430 | -60.68229 | 37946 ft | 421 kts | 336° |
| 2026-04-29 18:48 | 12.16904 | -60.70381 | 37961 ft | 421 kts | 335° |
| 2026-04-29 18:48 | 12.22377 | -60.72522 | 37953 ft | 420 kts | 335° |
| 2026-04-29 18:49 | 12.27835 | -60.74660 | 37957 ft | 420 kts | 335° |
| 2026-04-29 18:49 | 12.33288 | -60.76793 | 37947 ft | 420 kts | 335° |
| 2026-04-29 18:50 | 12.38744 | -60.78931 | 37952 ft | 420 kts | 335° |
| 2026-04-29 18:50 | 12.44197 | -60.81077 | 37949 ft | 420 kts | 335° |
| 2026-04-29 18:51 | 12.49646 | -60.83218 | 37947 ft | 419 kts | 335° |
| 2026-04-29 18:51 | 12.55092 | -60.85354 | 37947 ft | 419 kts | 335° |
| 2026-04-29 18:52 | 12.60536 | -60.87495 | 37951 ft | 419 kts | 335° |
| 2026-04-29 18:52 | 12.65940 | -60.89620 | 37947 ft | 419 kts | 335° |
| 2026-04-29 18:53 | 12.71410 | -60.91767 | 37943 ft | 418 kts | 335° |
| 2026-04-29 18:53 | 12.76810 | -60.93897 | 37947 ft | 418 kts | 335° |
| 2026-04-29 18:54 | 12.82279 | -60.96051 | 37951 ft | 418 kts | 335° |
| 2026-04-29 18:54 | 12.87675 | -60.98179 | 37955 ft | 418 kts | 335° |
| 2026-04-29 18:55 | 12.93111 | -61.00321 | 37961 ft | 419 kts | 335° |
| 2026-04-29 18:55 | 12.98549 | -61.02459 | 37969 ft | 419 kts | 335° |
| 2026-04-29 18:56 | 13.03992 | -61.04596 | 37977 ft | 419 kts | 335° |
| 2026-04-29 18:56 | 13.09430 | -61.06746 | 37984 ft | 419 kts | 335° |
| 2026-04-29 18:57 | 13.14865 | -61.08893 | 37990 ft | 418 kts | 335° |
| 2026-04-29 18:57 | 13.20302 | -61.11039 | 37988 ft | 418 kts | 335° |
| 2026-04-29 18:58 | 13.25730 | -61.13182 | 37989 ft | 418 kts | 335° |
| 2026-04-29 18:58 | 13.31150 | -61.15327 | 37985 ft | 417 kts | 335° |
| 2026-04-29 18:59 | 13.36567 | -61.17468 | 37995 ft | 417 kts | 335° |
| 2026-04-29 18:59 | 13.41979 | -61.19608 | 37990 ft | 417 kts | 335° |
| 2026-04-29 19:00 | 13.47397 | -61.21753 | 37996 ft | 417 kts | 334° |
| 2026-04-29 19:00 | 13.52815 | -61.23899 | 37989 ft | 417 kts | 334° |
| 2026-04-29 19:01 | 13.58199 | -61.26028 | 37987 ft | 418 kts | 334° |
| 2026-04-29 19:01 | 13.63626 | -61.28181 | 37988 ft | 418 kts | 334° |
| 2026-04-29 19:02 | 13.68169 | -61.29983 | 37984 ft | 418 kts | 334° |
| 2026-04-29 19:02 | 13.74474 | -61.32482 | 37982 ft | 418 kts | 334° |
| 2026-04-29 19:03 | 13.79896 | -61.34633 | 37979 ft | 418 kts | 334° |
| 2026-04-29 19:03 | 13.85316 | -61.36783 | 37985 ft | 417 kts | 333° |
| 2026-04-29 19:04 | 13.90736 | -61.38940 | 37985 ft | 417 kts | 333° |
| 2026-04-29 19:04 | 13.96150 | -61.41093 | 37982 ft | 417 kts | 333° |
| 2026-04-29 19:05 | 14.01553 | -61.43246 | 37976 ft | 416 kts | 333° |
| 2026-04-29 19:05 | 14.06960 | -61.45402 | 37975 ft | 417 kts | 333° |
| 2026-04-29 19:06 | 14.12365 | -61.47556 | 37967 ft | 417 kts | 333° |
| 2026-04-29 19:07 | 14.20475 | -61.50786 | 37969 ft | 416 kts | 333° |
| 2026-04-29 19:07 | 14.25876 | -61.52940 | 37967 ft | 416 kts | 333° |
| 2026-04-29 19:08 | 14.31271 | -61.55093 | 37968 ft | 416 kts | 333° |
| 2026-04-29 19:08 | 14.36671 | -61.57248 | 37967 ft | 416 kts | 333° |
| 2026-04-29 19:09 | 14.42062 | -61.59401 | 37965 ft | 416 kts | 333° |
| 2026-04-29 19:09 | 14.47458 | -61.61555 | 37981 ft | 416 kts | 333° |
| 2026-04-29 19:10 | 14.52847 | -61.63710 | 37979 ft | 415 kts | 333° |
| 2026-04-29 19:10 | 14.58230 | -61.65865 | 37976 ft | 415 kts | 333° |
| 2026-04-29 19:11 | 14.63613 | -61.68015 | 37971 ft | 415 kts | 333° |
| 2026-04-29 19:11 | 14.68958 | -61.70155 | 37970 ft | 414 kts | 333° |
| 2026-04-29 19:12 | 14.74328 | -61.72312 | 37971 ft | 414 kts | 333° |
| 2026-04-29 19:12 | 14.79699 | -61.74468 | 37970 ft | 414 kts | 333° |
| 2026-04-29 19:13 | 14.85069 | -61.76620 | 37974 ft | 414 kts | 332° |
| 2026-04-29 19:13 | 14.90439 | -61.78775 | 37976 ft | 413 kts | 332° |
| 2026-04-29 19:14 | 14.94893 | -61.80562 | 37973 ft | 413 kts | 332° |
| 2026-04-29 19:14 | 15.00255 | -61.82717 | 37974 ft | 413 kts | 332° |
| 2026-04-29 19:15 | 15.05617 | -61.84868 | 37971 ft | 413 kts | 332° |
| 2026-04-29 19:15 | 15.10971 | -61.87020 | 37971 ft | 413 kts | 332° |
| 2026-04-29 19:16 | 15.16326 | -61.89177 | 37983 ft | 413 kts | 332° |
| 2026-04-29 19:16 | 15.21532 | -61.91522 | 37978 ft | 405 kts | 322° |
| 2026-04-29 19:17 | 15.25767 | -61.95212 | 37977 ft | 396 kts | 311° |
| 2026-04-29 19:17 | 15.29733 | -61.99173 | 37975 ft | 396 kts | 311° |
| 2026-04-29 19:18 | 15.33707 | -62.03127 | 37975 ft | 396 kts | 311° |
| 2026-04-29 19:18 | 15.37683 | -62.07085 | 37973 ft | 396 kts | 311° |
| 2026-04-29 19:19 | 15.41652 | -62.11044 | 37969 ft | 396 kts | 311° |
| 2026-04-29 19:19 | 15.45614 | -62.15005 | 37968 ft | 396 kts | 311° |
| 2026-04-29 19:20 | 15.49571 | -62.18964 | 37979 ft | 395 kts | 311° |
| 2026-04-29 19:20 | 15.53528 | -62.22921 | 37977 ft | 395 kts | 311° |
| 2026-04-29 19:21 | 15.57477 | -62.26878 | 37973 ft | 395 kts | 311° |
| 2026-04-29 19:21 | 15.61425 | -62.30840 | 37971 ft | 395 kts | 311° |
| 2026-04-29 19:22 | 15.65374 | -62.34798 | 37970 ft | 395 kts | 311° |
| 2026-04-29 19:22 | 15.69324 | -62.38761 | 37970 ft | 395 kts | 311° |
| 2026-04-29 19:23 | 15.73248 | -62.42700 | 37972 ft | 395 kts | 311° |
| 2026-04-29 19:23 | 15.77207 | -62.46661 | 37973 ft | 395 kts | 311° |
| 2026-04-29 19:24 | 15.81157 | -62.50628 | 37974 ft | 395 kts | 311° |
| 2026-04-29 19:24 | 15.85108 | -62.54600 | 37979 ft | 395 kts | 311° |
| 2026-04-29 19:25 | 15.89054 | -62.58566 | 37983 ft | 395 kts | 310° |
| 2026-04-29 19:25 | 15.92997 | -62.62533 | 37979 ft | 394 kts | 310° |
| 2026-04-29 19:26 | 15.96933 | -62.66499 | 37977 ft | 394 kts | 310° |
| 2026-04-29 19:26 | 16.00869 | -62.70465 | 37976 ft | 394 kts | 310° |
| 2026-04-29 19:27 | 16.04810 | -62.74432 | 37972 ft | 394 kts | 310° |
| 2026-04-29 19:27 | 16.08745 | -62.78403 | 37975 ft | 394 kts | 310° |
| 2026-04-29 19:28 | 16.12681 | -62.82376 | 37975 ft | 394 kts | 310° |
| 2026-04-29 19:28 | 16.16622 | -62.86350 | 37979 ft | 394 kts | 310° |
| 2026-04-29 19:29 | 16.20554 | -62.90323 | 37973 ft | 394 kts | 310° |
| 2026-04-29 19:29 | 16.24481 | -62.94296 | 37972 ft | 394 kts | 310° |
| 2026-04-29 19:30 | 16.28383 | -62.98240 | 37970 ft | 393 kts | 310° |
| 2026-04-29 19:30 | 16.31891 | -63.02532 | 37973 ft | 388 kts | 302° |
| 2026-04-29 19:31 | 16.35054 | -63.07083 | 37976 ft | 388 kts | 302° |
| 2026-04-29 19:31 | 16.38232 | -63.11624 | 37973 ft | 388 kts | 302° |
| 2026-04-29 19:32 | 16.41410 | -63.16163 | 37973 ft | 388 kts | 302° |
| 2026-04-29 19:32 | 16.44580 | -63.20707 | 37973 ft | 388 kts | 302° |
| 2026-04-29 19:33 | 16.47750 | -63.25257 | 37972 ft | 388 kts | 302° |
| 2026-04-29 19:33 | 16.50914 | -63.29802 | 37972 ft | 388 kts | 302° |
| 2026-04-29 19:34 | 16.54079 | -63.34352 | 37970 ft | 387 kts | 302° |
| 2026-04-29 19:34 | 16.57240 | -63.38899 | 37969 ft | 387 kts | 302° |
| 2026-04-29 19:35 | 16.60405 | -63.43453 | 37977 ft | 387 kts | 301° |
| 2026-04-29 19:35 | 16.63568 | -63.47999 | 37971 ft | 388 kts | 301° |
| 2026-04-29 19:36 | 16.66732 | -63.52552 | 37968 ft | 388 kts | 301° |
| 2026-04-29 19:36 | 16.69895 | -63.57107 | 37964 ft | 387 kts | 301° |
| 2026-04-29 19:37 | 16.73033 | -63.61635 | 37962 ft | 387 kts | 301° |
| 2026-04-29 19:37 | 16.76185 | -63.66191 | 37965 ft | 387 kts | 301° |
| 2026-04-29 19:38 | 16.79336 | -63.70751 | 37962 ft | 387 kts | 301° |
| 2026-04-29 19:38 | 16.82493 | -63.75309 | 37969 ft | 388 kts | 301° |
| 2026-04-29 19:39 | 16.85654 | -63.79872 | 37971 ft | 387 kts | 301° |
| 2026-04-29 19:39 | 16.88799 | -63.84439 | 37970 ft | 387 kts | 301° |
| 2026-04-29 19:40 | 16.91953 | -63.89000 | 37976 ft | 387 kts | 301° |
| 2026-04-29 19:40 | 16.95104 | -63.93562 | 37975 ft | 387 kts | 301° |
| 2026-04-29 19:41 | 16.98253 | -63.98125 | 37980 ft | 387 kts | 301° |
| 2026-04-29 19:41 | 17.01402 | -64.02690 | 37978 ft | 387 kts | 301° |
| 2026-04-29 19:42 | 17.04547 | -64.07268 | 37976 ft | 388 kts | 300° |
| 2026-04-29 19:42 | 17.07696 | -64.11852 | 37972 ft | 389 kts | 301° |
| 2026-04-29 19:43 | 17.10849 | -64.16444 | 37972 ft | 389 kts | 300° |
| 2026-04-29 19:43 | 17.14002 | -64.21034 | 37975 ft | 389 kts | 301° |
| 2026-04-29 19:44 | 17.17158 | -64.25622 | 37967 ft | 389 kts | 301° |
| 2026-04-29 19:44 | 17.20293 | -64.30182 | 37968 ft | 389 kts | 301° |
| 2026-04-29 19:44 | 17.21872 | -64.32480 | 37725 ft | 391 kts | 301° |
| 2026-04-29 19:45 | 17.23465 | -64.34803 | 37058 ft | 392 kts | 301° |
| 2026-04-29 19:45 | 17.25048 | -64.37113 | 36402 ft | 391 kts | 301° |
| 2026-04-29 19:45 | 17.26634 | -64.39430 | 35697 ft | 393 kts | 301° |
| 2026-04-29 19:45 | 17.28224 | -64.41752 | 35122 ft | 391 kts | 301° |
| 2026-04-29 19:46 | 17.29797 | -64.44042 | 34665 ft | 387 kts | 301° |
| 2026-04-29 19:46 | 17.31365 | -64.46327 | 34175 ft | 385 kts | 301° |
| 2026-04-29 19:46 | 17.32921 | -64.48595 | 33648 ft | 382 kts | 301° |
| 2026-04-29 19:46 | 17.34464 | -64.50844 | 33163 ft | 379 kts | 301° |
| 2026-04-29 19:47 | 17.35991 | -64.53076 | 32692 ft | 376 kts | 301° |
| 2026-04-29 19:47 | 17.37506 | -64.55294 | 32206 ft | 373 kts | 301° |
| 2026-04-29 19:47 | 17.39006 | -64.57493 | 31754 ft | 370 kts | 301° |
| 2026-04-29 19:47 | 17.40500 | -64.59682 | 31292 ft | 368 kts | 301° |
| 2026-04-29 19:48 | 17.41985 | -64.61854 | 30821 ft | 366 kts | 301° |
| 2026-04-29 19:48 | 17.42968 | -64.63292 | 30519 ft | 365 kts | 300° |
| 2026-04-29 19:48 | 17.44937 | -64.66182 | 29901 ft | 363 kts | 300° |
| 2026-04-29 19:48 | 17.46379 | -64.68301 | 29438 ft | 361 kts | 300° |
| 2026-04-29 19:49 | 17.47831 | -64.70433 | 29004 ft | 358 kts | 300° |
| 2026-04-29 19:49 | 17.49267 | -64.72543 | 28588 ft | 354 kts | 300° |
| 2026-04-29 19:49 | 17.50692 | -64.74633 | 28170 ft | 351 kts | 301° |
| 2026-04-29 19:49 | 17.52103 | -64.76699 | 27762 ft | 347 kts | 301° |
| 2026-04-29 19:50 | 17.53499 | -64.78745 | 27368 ft | 344 kts | 301° |
| 2026-04-29 19:50 | 17.54886 | -64.80776 | 26970 ft | 342 kts | 301° |
| 2026-04-29 19:50 | 17.56266 | -64.82798 | 26579 ft | 340 kts | 301° |
| 2026-04-29 19:50 | 17.57638 | -64.84812 | 26187 ft | 339 kts | 301° |
| 2026-04-29 19:51 | 17.59002 | -64.86822 | 25800 ft | 338 kts | 301° |
| 2026-04-29 19:51 | 17.60362 | -64.88825 | 25386 ft | 336 kts | 301° |
| 2026-04-29 19:51 | 17.61720 | -64.90820 | 24977 ft | 335 kts | 301° |
| 2026-04-29 19:51 | 17.63073 | -64.92810 | 24547 ft | 335 kts | 301° |
| 2026-04-29 19:52 | 17.64425 | -64.94797 | 24115 ft | 334 kts | 301° |
| 2026-04-29 19:52 | 17.65774 | -64.96778 | 23679 ft | 334 kts | 301° |
| 2026-04-29 19:52 | 17.67125 | -64.98764 | 23179 ft | 334 kts | 301° |
| 2026-04-29 19:52 | 17.68472 | -65.00747 | 22721 ft | 333 kts | 301° |
| 2026-04-29 19:53 | 17.69809 | -65.02719 | 22281 ft | 331 kts | 301° |
| 2026-04-29 19:53 | 17.71143 | -65.04688 | 21845 ft | 330 kts | 301° |
| 2026-04-29 19:53 | 17.72472 | -65.06649 | 21418 ft | 329 kts | 302° |
| 2026-04-29 19:53 | 17.73796 | -65.08602 | 20984 ft | 329 kts | 302° |
| 2026-04-29 19:54 | 17.76442 | -65.12506 | 20127 ft | 328 kts | 302° |
| 2026-04-29 19:54 | 17.77763 | -65.14456 | 19710 ft | 328 kts | 302° |
| 2026-04-29 19:54 | 17.79086 | -65.16407 | 19273 ft | 328 kts | 303° |
| 2026-04-29 19:55 | 17.80409 | -65.18358 | 18858 ft | 328 kts | 303° |
| 2026-04-29 19:55 | 17.81729 | -65.20307 | 18439 ft | 328 kts | 303° |
| 2026-04-29 19:55 | 17.83050 | -65.22261 | 17986 ft | 328 kts | 303° |
| 2026-04-29 19:55 | 17.84370 | -65.24211 | 17568 ft | 327 kts | 303° |
| 2026-04-29 19:56 | 17.85681 | -65.26150 | 17164 ft | 325 kts | 303° |
| 2026-04-29 19:56 | 17.86985 | -65.28079 | 16757 ft | 324 kts | 304° |
| 2026-04-29 19:56 | 17.88288 | -65.30003 | 16338 ft | 322 kts | 304° |
| 2026-04-29 19:56 | 17.89585 | -65.31919 | 15955 ft | 322 kts | 304° |
| 2026-04-29 19:57 | 17.90878 | -65.33832 | 15557 ft | 321 kts | 304° |
| 2026-04-29 19:57 | 17.91733 | -65.35099 | 15294 ft | 321 kts | 304° |
| 2026-04-29 19:57 | 17.93459 | -65.37658 | 14777 ft | 321 kts | 304° |
| 2026-04-29 19:57 | 17.94749 | -65.39569 | 14366 ft | 320 kts | 304° |
| 2026-04-29 19:58 | 17.96038 | -65.41474 | 13971 ft | 320 kts | 304° |
| 2026-04-29 19:58 | 17.97331 | -65.43384 | 13542 ft | 320 kts | 304° |
| 2026-04-29 19:58 | 17.98617 | -65.45285 | 13128 ft | 319 kts | 304° |
| 2026-04-29 19:58 | 17.99895 | -65.47178 | 12726 ft | 317 kts | 304° |
| 2026-04-29 19:59 | 18.01161 | -65.49055 | 12439 ft | 311 kts | 304° |
| 2026-04-29 19:59 | 18.02377 | -65.50861 | 12200 ft | 304 kts | 304° |
| 2026-04-29 19:59 | 18.03596 | -65.52674 | 11807 ft | 303 kts | 305° |
| 2026-04-29 19:59 | 18.04811 | -65.54477 | 11408 ft | 303 kts | 305° |
| 2026-04-29 20:00 | 18.06022 | -65.56281 | 11052 ft | 300 kts | 305° |
| 2026-04-29 20:00 | 18.07200 | -65.58074 | 10974 ft | 296 kts | 304° |
| 2026-04-29 20:00 | 18.08360 | -65.59861 | 10988 ft | 296 kts | 304° |
| 2026-04-29 20:00 | 18.09522 | -65.61654 | 10995 ft | 297 kts | 304° |
| 2026-04-29 20:01 | 18.10691 | -65.63454 | 10993 ft | 298 kts | 304° |
| 2026-04-29 20:01 | 18.11861 | -65.65256 | 10992 ft | 298 kts | 304° |
| 2026-04-29 20:01 | 18.13032 | -65.67054 | 10991 ft | 298 kts | 304° |
| 2026-04-29 20:01 | 18.14201 | -65.68843 | 10991 ft | 297 kts | 304° |
| 2026-04-29 20:02 | 18.15371 | -65.70638 | 10991 ft | 298 kts | 304° |
| 2026-04-29 20:02 | 18.16540 | -65.72435 | 10992 ft | 298 kts | 304° |
| 2026-04-29 20:02 | 18.17692 | -65.74205 | 11006 ft | 296 kts | 304° |
| 2026-04-29 20:02 | 18.18084 | -65.74806 | 11006 ft | 295 kts | 304° |
| 2026-04-29 20:03 | 18.19718 | -65.77133 | 10928 ft | 297 kts | 308° |
| 2026-04-29 20:03 | 18.21047 | -65.78791 | 10486 ft | 295 kts | 310° |
| 2026-04-29 20:03 | 18.22419 | -65.80419 | 10035 ft | 296 kts | 312° |
| 2026-04-29 20:03 | 18.23781 | -65.82015 | 9330 ft | 293 kts | 312° |
| 2026-04-29 20:04 | 18.25138 | -65.83610 | 8604 ft | 291 kts | 311° |
| 2026-04-29 20:04 | 18.26477 | -65.85200 | 7880 ft | 289 kts | 311° |
| 2026-04-29 20:04 | 18.27798 | -65.86784 | 7242 ft | 284 kts | 311° |
| 2026-04-29 20:04 | 18.29044 | -65.88288 | 6996 ft | 265 kts | 311° |
| 2026-04-29 20:05 | 18.30225 | -65.89717 | 6732 ft | 249 kts | 310° |
| 2026-04-29 20:05 | 18.31333 | -65.91063 | 6442 ft | 237 kts | 310° |
| 2026-04-29 20:05 | 18.32398 | -65.92358 | 6337 ft | 238 kts | 310° |
| 2026-04-29 20:05 | 18.33484 | -65.93676 | 6211 ft | 238 kts | 310° |
| 2026-04-29 20:06 | 18.34568 | -65.94995 | 6087 ft | 238 kts | 310° |
| 2026-04-29 20:06 | 18.35500 | -65.96420 | 6021 ft | 237 kts | 296° |
| 2026-04-29 20:06 | 18.36064 | -65.98049 | 5853 ft | 238 kts | 281° |
| 2026-04-29 20:06 | 18.36226 | -65.99767 | 5551 ft | 235 kts | 269° |
| 2026-04-29 20:07 | 18.36223 | -66.01534 | 5261 ft | 249 kts | 269° |
| 2026-04-29 20:07 | 18.36228 | -66.03337 | 5058 ft | 241 kts | 269° |
| 2026-04-29 20:07 | 18.36236 | -66.05064 | 4908 ft | 231 kts | 269° |
| 2026-04-29 20:07 | 18.36242 | -66.06737 | 4699 ft | 227 kts | 269° |
| 2026-04-29 20:08 | 18.36248 | -66.08378 | 4475 ft | 223 kts | 268° |
| 2026-04-29 20:08 | 18.36250 | -66.09462 | 4327 ft | 222 kts | 268° |
| 2026-04-29 20:08 | 18.36251 | -66.11627 | 4034 ft | 220 kts | 269° |
| 2026-04-29 20:08 | 18.36253 | -66.13235 | 3812 ft | 219 kts | 268° |
| 2026-04-29 20:09 | 18.36255 | -66.14836 | 3595 ft | 218 kts | 268° |
| 2026-04-29 20:09 | 18.36258 | -66.16436 | 3380 ft | 219 kts | 268° |
| 2026-04-29 20:09 | 18.36416 | -66.18024 | 3158 ft | 219 kts | 289° |
| 2026-04-29 20:09 | 18.37276 | -66.19324 | 2944 ft | 219 kts | 321° |
| 2026-04-29 20:10 | 18.38638 | -66.19960 | 2715 ft | 214 kts | 354° |
| 2026-04-29 20:10 | 18.40099 | -66.19987 | 2505 ft | 208 kts | 1° |
| 2026-04-29 20:10 | 18.41541 | -66.19958 | 2285 ft | 205 kts | 7° |
| 2026-04-29 20:10 | 18.42783 | -66.19393 | 2067 ft | 191 kts | 49° |
| 2026-04-29 20:11 | 18.43368 | -66.18191 | 1989 ft | 182 kts | 87° |
| 2026-04-29 20:11 | 18.43356 | -66.16937 | 2024 ft | 166 kts | 94° |
| 2026-04-29 20:11 | 18.43351 | -66.15774 | 1985 ft | 151 kts | 91° |
| 2026-04-29 20:11 | 18.43355 | -66.14707 | 1983 ft | 142 kts | 90° |
| 2026-04-29 20:12 | 18.43359 | -66.13685 | 1984 ft | 138 kts | 92° |
| 2026-04-29 20:12 | 18.43366 | -66.12662 | 1956 ft | 138 kts | 92° |
| 2026-04-29 20:12 | 18.43370 | -66.11656 | 1843 ft | 140 kts | 91° |
| 2026-04-29 20:12 | 18.43371 | -66.10638 | 1688 ft | 138 kts | 90° |
| 2026-04-29 20:13 | 18.43371 | -66.09625 | 1520 ft | 138 kts | 91° |
| 2026-04-29 20:13 | 18.43370 | -66.08619 | 1339 ft | 135 kts | 92° |
| 2026-04-29 20:13 | 18.43368 | -66.07629 | 1199 ft | 133 kts | 92° |
| 2026-04-29 20:13 | 18.43367 | -66.06664 | 1021 ft | 131 kts | 92° |
| 2026-04-29 20:14 | 18.43365 | -66.05710 | 850 ft | 131 kts | 90° |
| 2026-04-29 20:14 | 18.43363 | -66.04759 | 679 ft | 131 kts | 89° |
| 2026-04-29 20:14 | 18.43361 | -66.03798 | 515 ft | 131 kts | 89° |
| 2026-04-29 20:14 | 18.43359 | -66.02839 | 337 ft | 131 kts | 89° |
| 2026-04-29 20:15 | 18.43351 | -66.01879 | 149 ft | 129 kts | 88° |
| 2026-04-29 20:15 | 18.43355 | -66.00945 | 20 ft | 124 kts | 90° |
| 2026-04-29 20:15 | 18.43357 | -66.00257 | 17 ft | 53 kts | 91° |
| 2026-04-29 20:15 | 18.43377 | -65.99994 | 19 ft | 24 kts | 70° |
| 2026-04-29 20:16 | 18.43438 | -65.99907 | 17 ft | 12 kts | 10° |
| 2026-04-29 20:16 | 18.43517 | -65.99918 | 18 ft | 11 kts | 353° |
| 2026-04-29 20:16 | 18.43568 | -65.99963 | 17 ft | 9 kts | 312° |
| 2026-04-29 20:16 | 18.43625 | -65.99975 | 17 ft | 8 kts | 354° |
| 2026-04-29 20:17 | 18.43678 | -65.99978 | 17 ft | 7 kts | 351° |
| 2026-04-29 20:17 | 18.43723 | -65.99996 | 17 ft | 6 kts | 336° |
| 2026-04-29 20:17 | 18.43763 | -66.00014 | 17 ft | 7 kts | 337° |
| 2026-04-29 20:17 | 18.43832 | -66.00045 | 17 ft | 14 kts | 337° |
| 2026-04-29 20:18 | 18.43931 | -66.00087 | 17 ft | 13 kts | 338° |
| 2026-04-29 20:18 | 18.43986 | -66.00128 | 18 ft | 7 kts | 287° |
| 2026-04-29 20:18 | 18.43965 | -66.00165 | 18 ft | 6 kts | 209° |
| 2026-04-29 20:18 | 18.43931 | -66.00179 | 17 ft | 4 kts | 201° |
| 2026-04-29 20:19 | 18.43910 | -66.00187 | 17 ft | 2 kts | 200° |
| 2026-04-29 20:19 | 18.43905 | -66.00189 | 17 ft | 0 kts | 200° |